Andrews A F B, District of Columbia
Current Conditions -  °F | °C
As of 4:22 AM on Wednesday 22 Oct 2014 (Local Time) from KADW Reporting Station
Drizzle Drizzle  
Wind Chill: 12°   Ceiling: 600
Heat Index: 12°   Visibility: 10mi
Dew Point: 11°   Wind: 13mph
Humidity: 94%   Direction: 320°NW
Pressure: 29.84"   Gusts: NA
Location:  38.8022°N, 76.8857°W
Report Text: KADW 220822Z AUTO 32011KT 10SM -DZ OVC006 12/11 A2984 RMK AO2 $
Loading
Personal Weather Stations






























Interactive Weather Map
Tropical Storm Tracking
New forecast layout! Learn more

10-Day Weather Forecast

Advertisements
Track Severe Weather on mobile